sensor_id;sensor_type;location;lat;lon;timestamp;P1;P2;P0
56069;PMS5003;41944;52.078;-0.058;2023-07-09T00:01:56;7;7;
56069;PMS5003;41944;52.078;-0.058;2023-07-09T00:04:24;8;7;
56069;PMS5003;41944;52.078;-0.058;2023-07-09T00:06:51;7;6;
56069;PMS5003;41944;52.078;-0.058;2023-07-09T00:09:18;8;5;
56069;PMS5003;41944;52.078;-0.058;2023-07-09T00:11:47;8;6;
56069;PMS5003;41944;52.078;-0.058;2023-07-09T00:14:16;5;5;
56069;PMS5003;41944;52.078;-0.058;2023-07-09T00:16:43;6;6;
56069;PMS5003;41944;52.078;-0.058;2023-07-09T00:19:12;7;7;
56069;PMS5003;41944;52.078;-0.058;2023-07-09T00:21:41;7;7;
56069;PMS5003;41944;52.078;-0.058;2023-07-09T00:24:09;7;7;
56069;PMS5003;41944;52.078;-0.058;2023-07-09T00:26:36;9;7;
56069;PMS5003;41944;52.078;-0.058;2023-07-09T00:29:04;6;6;
56069;PMS5003;41944;52.078;-0.058;2023-07-09T00:31:30;5;5;
56069;PMS5003;41944;52.078;-0.058;2023-07-09T00:33:58;6;6;
56069;PMS5003;41944;52.078;-0.058;2023-07-09T00:36:26;5;5;
56069;PMS5003;41944;52.078;-0.058;2023-07-09T00:38:54;8;7;
56069;PMS5003;41944;52.078;-0.058;2023-07-09T00:41:22;6;6;
56069;PMS5003;41944;52.078;-0.058;2023-07-09T00:43:50;5;5;
56069;PMS5003;41944;52.078;-0.058;2023-07-09T00:47:25;10;8;
56069;PMS5003;41944;52.078;-0.058;2023-07-09T00:49:59;5;5;
56069;PMS5003;41944;52.078;-0.058;2023-07-09T00:52:33;5;5;
56069;PMS5003;41944;52.078;-0.058;2023-07-09T00:55:05;9;9;
56069;PMS5003;41944;52.078;-0.058;2023-07-09T00:57:37;6;6;
56069;PMS5003;41944;52.078;-0.058;2023-07-09T01:00:07;4;4;
56069;PMS5003;41944;52.078;-0.058;2023-07-09T01:02:37;6;5;
56069;PMS5003;41944;52.078;-0.058;2023-07-09T01:05:07;5;5;
56069;PMS5003;41944;52.078;-0.058;2023-07-09T01:07:34;9;9;
56069;PMS5003;41944;52.078;-0.058;2023-07-09T01:10:01;6;6;
56069;PMS5003;41944;52.078;-0.058;2023-07-09T01:12:28;8;8;
56069;PMS5003;41944;52.078;-0.058;2023-07-09T01:14:56;7;7;
56069;PMS5003;41944;52.078;-0.058;2023-07-09T01:17:24;7;6;
56069;PMS5003;41944;52.078;-0.058;2023-07-09T01:19:54;8;8;
56069;PMS5003;41944;52.078;-0.058;2023-07-09T01:22:22;10;8;
56069;PMS5003;41944;52.078;-0.058;2023-07-09T01:24:53;10;9;
56069;PMS5003;41944;52.078;-0.058;2023-07-09T01:27:23;11;9;
56069;PMS5003;41944;52.078;-0.058;2023-07-09T01:29:53;10;8;
56069;PMS5003;41944;52.078;-0.058;2023-07-09T01:32:21;8;8;
56069;PMS5003;41944;52.078;-0.058;2023-07-09T01:34:49;7;6;
56069;PMS5003;41944;52.078;-0.058;2023-07-09T01:37:20;7;6;
56069;PMS5003;41944;52.078;-0.058;2023-07-09T01:39:50;8;8;
56069;PMS5003;41944;52.078;-0.058;2023-07-09T01:42:19;9;8;
56069;PMS5003;41944;52.078;-0.058;2023-07-09T01:44:48;9;8;
56069;PMS5003;41944;52.078;-0.058;2023-07-09T01:47:15;11;9;
56069;PMS5003;41944;52.078;-0.058;2023-07-09T01:49:43;6;6;
56069;PMS5003;41944;52.078;-0.058;2023-07-09T01:52:10;10;7;
56069;PMS5003;41944;52.078;-0.058;2023-07-09T01:54:37;7;7;
56069;PMS5003;41944;52.078;-0.058;2023-07-09T01:57:20;6;6;
56069;PMS5003;41944;52.078;-0.058;2023-07-09T01:59:49;7;5;
56069;PMS5003;41944;52.078;-0.058;2023-07-09T02:02:17;6;6;
56069;PMS5003;41944;52.078;-0.058;2023-07-09T02:04:43;6;6;
56069;PMS5003;41944;52.078;-0.058;2023-07-09T02:07:11;8;6;
56069;PMS5003;41944;52.078;-0.058;2023-07-09T02:09:38;6;6;
56069;PMS5003;41944;52.078;-0.058;2023-07-09T02:12:05;6;6;
56069;PMS5003;41944;52.078;-0.058;2023-07-09T02:14:32;5;5;
56069;PMS5003;41944;52.078;-0.058;2023-07-09T02:16:59;6;6;
56069;PMS5003;41944;52.078;-0.058;2023-07-09T02:19:27;8;4;
56069;PMS5003;41944;52.078;-0.058;2023-07-09T02:21:54;6;6;
56069;PMS5003;41944;52.078;-0.058;2023-07-09T02:24:21;7;5;
56069;PMS5003;41944;52.078;-0.058;2023-07-09T02:26:49;5;5;
56069;PMS5003;41944;52.078;-0.058;2023-07-09T02:29:15;5;5;
56069;PMS5003;41944;52.078;-0.058;2023-07-09T02:31:42;5;3;
56069;PMS5003;41944;52.078;-0.058;2023-07-09T02:34:10;7;7;
56069;PMS5003;41944;52.078;-0.058;2023-07-09T02:36:37;5;4;
56069;PMS5003;41944;52.078;-0.058;2023-07-09T02:39:04;6;6;
56069;PMS5003;41944;52.078;-0.058;2023-07-09T02:41:30;7;5;
56069;PMS5003;41944;52.078;-0.058;2023-07-09T02:43:57;5;5;
56069;PMS5003;41944;52.078;-0.058;2023-07-09T02:46:24;4;4;
56069;PMS5003;41944;52.078;-0.058;2023-07-09T02:48:52;6;5;
56069;PMS5003;41944;52.078;-0.058;2023-07-09T02:51:19;3;3;
56069;PMS5003;41944;52.078;-0.058;2023-07-09T02:53:46;6;6;
56069;PMS5003;41944;52.078;-0.058;2023-07-09T02:56:13;5;5;
56069;PMS5003;41944;52.078;-0.058;2023-07-09T02:58:40;3;3;
56069;PMS5003;41944;52.078;-0.058;2023-07-09T03:01:07;6;6;
56069;PMS5003;41944;52.078;-0.058;2023-07-09T03:03:34;5;5;
56069;PMS5003;41944;52.078;-0.058;2023-07-09T03:06:01;3;3;
56069;PMS5003;41944;52.078;-0.058;2023-07-09T03:08:28;4;4;
56069;PMS5003;41944;52.078;-0.058;2023-07-09T03:10:56;5;5;
56069;PMS5003;41944;52.078;-0.058;2023-07-09T03:13:24;4;4;
56069;PMS5003;41944;52.078;-0.058;2023-07-09T03:15:53;7;4;
56069;PMS5003;41944;52.078;-0.058;2023-07-09T03:18:21;7;5;
56069;PMS5003;41944;52.078;-0.058;2023-07-09T03:20:49;4;4;
56069;PMS5003;41944;52.078;-0.058;2023-07-09T03:23:17;6;5;
56069;PMS5003;41944;52.078;-0.058;2023-07-09T03:25:44;6;3;
56069;PMS5003;41944;52.078;-0.058;2023-07-09T03:28:11;4;4;
56069;PMS5003;41944;52.078;-0.058;2023-07-09T03:30:39;4;4;
56069;PMS5003;41944;52.078;-0.058;2023-07-09T03:33:07;4;4;
56069;PMS5003;41944;52.078;-0.058;2023-07-09T03:35:34;4;4;
56069;PMS5003;41944;52.078;-0.058;2023-07-09T03:38:01;6;4;
56069;PMS5003;41944;52.078;-0.058;2023-07-09T03:40:28;7;4;
56069;PMS5003;41944;52.078;-0.058;2023-07-09T03:42:55;7;5;
56069;PMS5003;41944;52.078;-0.058;2023-07-09T03:45:22;5;5;
56069;PMS5003;41944;52.078;-0.058;2023-07-09T03:47:50;5;5;
56069;PMS5003;41944;52.078;-0.058;2023-07-09T03:50:17;4;3;
56069;PMS5003;41944;52.078;-0.058;2023-07-09T03:52:45;5;4;
56069;PMS5003;41944;52.078;-0.058;2023-07-09T03:55:11;6;4;
56069;PMS5003;41944;52.078;-0.058;2023-07-09T03:57:38;5;4;
56069;PMS5003;41944;52.078;-0.058;2023-07-09T04:00:06;4;4;
56069;PMS5003;41944;52.078;-0.058;2023-07-09T04:02:34;7;4;
56069;PMS5003;41944;52.078;-0.058;2023-07-09T04:05:01;7;4;
56069;PMS5003;41944;52.078;-0.058;2023-07-09T04:07:27;6;6;
56069;PMS5003;41944;52.078;-0.058;2023-07-09T04:09:54;4;4;
56069;PMS5003;41944;52.078;-0.058;2023-07-09T04:12:21;8;5;
56069;PMS5003;41944;52.078;-0.058;2023-07-09T04:14:48;4;4;
56069;PMS5003;41944;52.078;-0.058;2023-07-09T04:17:15;9;4;
56069;PMS5003;41944;52.078;-0.058;2023-07-09T04:19:42;4;4;
56069;PMS5003;41944;52.078;-0.058;2023-07-09T04:22:09;9;6;
56069;PMS5003;41944;52.078;-0.058;2023-07-09T04:24:37;8;7;
56069;PMS5003;41944;52.078;-0.058;2023-07-09T04:27:05;7;5;
56069;PMS5003;41944;52.078;-0.058;2023-07-09T04:29:32;8;6;
56069;PMS5003;41944;52.078;-0.058;2023-07-09T04:31:59;6;6;
56069;PMS5003;41944;52.078;-0.058;2023-07-09T04:34:26;9;8;
56069;PMS5003;41944;52.078;-0.058;2023-07-09T04:36:54;9;5;
56069;PMS5003;41944;52.078;-0.058;2023-07-09T04:39:21;8;7;
56069;PMS5003;41944;52.078;-0.058;2023-07-09T04:41:48;10;8;
56069;PMS5003;41944;52.078;-0.058;2023-07-09T04:44:15;11;7;
56069;PMS5003;41944;52.078;-0.058;2023-07-09T04:46:43;10;9;
56069;PMS5003;41944;52.078;-0.058;2023-07-09T04:49:10;10;8;
56069;PMS5003;41944;52.078;-0.058;2023-07-09T04:51:37;12;8;
56069;PMS5003;41944;52.078;-0.058;2023-07-09T04:54:04;8;7;
56069;PMS5003;41944;52.078;-0.058;2023-07-09T04:56:31;9;6;
56069;PMS5003;41944;52.078;-0.058;2023-07-09T04:58:58;7;7;
56069;PMS5003;41944;52.078;-0.058;2023-07-09T05:01:26;10;5;
56069;PMS5003;41944;52.078;-0.058;2023-07-09T05:03:53;9;6;
56069;PMS5003;41944;52.078;-0.058;2023-07-09T05:06:21;7;7;
56069;PMS5003;41944;52.078;-0.058;2023-07-09T05:08:48;7;6;
56069;PMS5003;41944;52.078;-0.058;2023-07-09T05:11:15;7;7;
56069;PMS5003;41944;52.078;-0.058;2023-07-09T05:13:41;7;6;
56069;PMS5003;41944;52.078;-0.058;2023-07-09T05:16:08;3;3;
56069;PMS5003;41944;52.078;-0.058;2023-07-09T05:18:35;7;6;
56069;PMS5003;41944;52.078;-0.058;2023-07-09T05:21:03;8;4;
56069;PMS5003;41944;52.078;-0.058;2023-07-09T05:23:31;10;7;
56069;PMS5003;41944;52.078;-0.058;2023-07-09T05:25:58;8;5;
56069;PMS5003;41944;52.078;-0.058;2023-07-09T05:28:26;9;7;
56069;PMS5003;41944;52.078;-0.058;2023-07-09T05:30:54;7;6;
56069;PMS5003;41944;52.078;-0.058;2023-07-09T05:33:21;5;5;
56069;PMS5003;41944;52.078;-0.058;2023-07-09T05:35:48;4;4;
56069;PMS5003;41944;52.078;-0.058;2023-07-09T05:38:15;9;5;
56069;PMS5003;41944;52.078;-0.058;2023-07-09T05:40:42;3;3;
56069;PMS5003;41944;52.078;-0.058;2023-07-09T05:43:10;9;6;
56069;PMS5003;41944;52.078;-0.058;2023-07-09T05:45:38;5;5;
56069;PMS5003;41944;52.078;-0.058;2023-07-09T05:48:05;6;6;
56069;PMS5003;41944;52.078;-0.058;2023-07-09T05:50:33;5;3;
56069;PMS5003;41944;52.078;-0.058;2023-07-09T05:53:01;5;5;
56069;PMS5003;41944;52.078;-0.058;2023-07-09T05:55:28;8;3;
56069;PMS5003;41944;52.078;-0.058;2023-07-09T05:57:55;9;5;
56069;PMS5003;41944;52.078;-0.058;2023-07-09T06:00:23;8;5;
56069;PMS5003;41944;52.078;-0.058;2023-07-09T06:02:49;7;3;
56069;PMS5003;41944;52.078;-0.058;2023-07-09T06:05:17;4;4;
56069;PMS5003;41944;52.078;-0.058;2023-07-09T06:07:44;4;3;
56069;PMS5003;41944;52.078;-0.058;2023-07-09T06:10:11;6;3;
56069;PMS5003;41944;52.078;-0.058;2023-07-09T06:12:38;7;4;
56069;PMS5003;41944;52.078;-0.058;2023-07-09T06:15:05;5;4;
56069;PMS5003;41944;52.078;-0.058;2023-07-09T06:17:33;8;5;
56069;PMS5003;41944;52.078;-0.058;2023-07-09T06:20:00;5;5;
56069;PMS5003;41944;52.078;-0.058;2023-07-09T06:22:27;6;5;
56069;PMS5003;41944;52.078;-0.058;2023-07-09T06:24:54;7;4;
56069;PMS5003;41944;52.078;-0.058;2023-07-09T06:27:21;4;4;
56069;PMS5003;41944;52.078;-0.058;2023-07-09T06:29:48;7;3;
56069;PMS5003;41944;52.078;-0.058;2023-07-09T06:32:15;6;5;
56069;PMS5003;41944;52.078;-0.058;2023-07-09T06:34:42;4;3;
56069;PMS5003;41944;52.078;-0.058;2023-07-09T06:37:09;8;5;
56069;PMS5003;41944;52.078;-0.058;2023-07-09T06:39:36;7;3;
56069;PMS5003;41944;52.078;-0.058;2023-07-09T06:42:03;6;5;
56069;PMS5003;41944;52.078;-0.058;2023-07-09T06:44:30;6;4;
56069;PMS5003;41944;52.078;-0.058;2023-07-09T06:46:57;7;4;
56069;PMS5003;41944;52.078;-0.058;2023-07-09T06:49:24;5;5;
56069;PMS5003;41944;52.078;-0.058;2023-07-09T06:51:52;5;4;
56069;PMS5003;41944;52.078;-0.058;2023-07-09T06:54:19;6;3;
56069;PMS5003;41944;52.078;-0.058;2023-07-09T06:56:45;8;3;
56069;PMS5003;41944;52.078;-0.058;2023-07-09T06:59:12;6;4;
56069;PMS5003;41944;52.078;-0.058;2023-07-09T07:01:39;7;4;
56069;PMS5003;41944;52.078;-0.058;2023-07-09T07:04:06;6;6;
56069;PMS5003;41944;52.078;-0.058;2023-07-09T07:06:33;6;4;
56069;PMS5003;41944;52.078;-0.058;2023-07-09T07:09:00;6;4;
56069;PMS5003;41944;52.078;-0.058;2023-07-09T07:11:27;7;4;
56069;PMS5003;41944;52.078;-0.058;2023-07-09T07:13:54;3;3;
56069;PMS5003;41944;52.078;-0.058;2023-07-09T07:16:22;5;3;
56069;PMS5003;41944;52.078;-0.058;2023-07-09T07:18:49;9;5;
56069;PMS5003;41944;52.078;-0.058;2023-07-09T07:21:16;6;4;
56069;PMS5003;41944;52.078;-0.058;2023-07-09T07:23:43;9;6;
56069;PMS5003;41944;52.078;-0.058;2023-07-09T07:26:10;7;3;
56069;PMS5003;41944;52.078;-0.058;2023-07-09T07:28:37;4;2;
56069;PMS5003;41944;52.078;-0.058;2023-07-09T07:31:04;6;4;
56069;PMS5003;41944;52.078;-0.058;2023-07-09T07:33:32;5;3;
56069;PMS5003;41944;52.078;-0.058;2023-07-09T07:36:00;3;2;
56069;PMS5003;41944;52.078;-0.058;2023-07-09T07:38:30;4;3;
56069;PMS5003;41944;52.078;-0.058;2023-07-09T07:40:57;7;5;
56069;PMS5003;41944;52.078;-0.058;2023-07-09T07:43:25;7;6;
56069;PMS5003;41944;52.078;-0.058;2023-07-09T07:45:52;5;5;
56069;PMS5003;41944;52.078;-0.058;2023-07-09T07:48:19;7;4;
56069;PMS5003;41944;52.078;-0.058;2023-07-09T07:50:46;10;3;
56069;PMS5003;41944;52.078;-0.058;2023-07-09T07:53:13;6;4;
56069;PMS5003;41944;52.078;-0.058;2023-07-09T07:55:41;4;3;
56069;PMS5003;41944;52.078;-0.058;2023-07-09T07:58:09;8;3;
56069;PMS5003;41944;52.078;-0.058;2023-07-09T08:00:37;10;4;
56069;PMS5003;41944;52.078;-0.058;2023-07-09T08:03:05;5;5;
56069;PMS5003;41944;52.078;-0.058;2023-07-09T08:05:32;7;4;
56069;PMS5003;41944;52.078;-0.058;2023-07-09T08:07:59;9;3;
56069;PMS5003;41944;52.078;-0.058;2023-07-09T08:10:26;4;4;
56069;PMS5003;41944;52.078;-0.058;2023-07-09T08:12:53;9;3;
56069;PMS5003;41944;52.078;-0.058;2023-07-09T08:15:20;3;1;
56069;PMS5003;41944;52.078;-0.058;2023-07-09T08:17:47;5;5;
56069;PMS5003;41944;52.078;-0.058;2023-07-09T08:20:14;5;3;
56069;PMS5003;41944;52.078;-0.058;2023-07-09T08:22:41;8;5;
56069;PMS5003;41944;52.078;-0.058;2023-07-09T08:25:08;8;5;
56069;PMS5003;41944;52.078;-0.058;2023-07-09T08:27:35;5;5;
56069;PMS5003;41944;52.078;-0.058;2023-07-09T08:30:02;6;5;
56069;PMS5003;41944;52.078;-0.058;2023-07-09T08:32:29;6;4;
56069;PMS5003;41944;52.078;-0.058;2023-07-09T08:34:56;3;2;
56069;PMS5003;41944;52.078;-0.058;2023-07-09T08:37:23;5;5;
56069;PMS5003;41944;52.078;-0.058;2023-07-09T08:39:51;5;3;
56069;PMS5003;41944;52.078;-0.058;2023-07-09T08:42:20;6;3;
56069;PMS5003;41944;52.078;-0.058;2023-07-09T08:44:58;4;4;
56069;PMS5003;41944;52.078;-0.058;2023-07-09T08:47:37;3;2;
56069;PMS5003;41944;52.078;-0.058;2023-07-09T08:50:14;5;5;
56069;PMS5003;41944;52.078;-0.058;2023-07-09T08:52:46;5;2;
56069;PMS5003;41944;52.078;-0.058;2023-07-09T08:55:17;5;4;
56069;PMS5003;41944;52.078;-0.058;2023-07-09T08:57:47;5;3;
56069;PMS5003;41944;52.078;-0.058;2023-07-09T09:00:17;4;3;
56069;PMS5003;41944;52.078;-0.058;2023-07-09T09:02:49;7;5;
56069;PMS5003;41944;52.078;-0.058;2023-07-09T09:05:19;10;5;
56069;PMS5003;41944;52.078;-0.058;2023-07-09T09:07:50;5;5;
56069;PMS5003;41944;52.078;-0.058;2023-07-09T09:10:22;6;4;
56069;PMS5003;41944;52.078;-0.058;2023-07-09T09:12:59;6;5;
56069;PMS5003;41944;52.078;-0.058;2023-07-09T09:15:35;4;4;
56069;PMS5003;41944;52.078;-0.058;2023-07-09T09:18:23;10;5;
56069;PMS5003;41944;52.078;-0.058;2023-07-09T09:20:54;7;3;
56069;PMS5003;41944;52.078;-0.058;2023-07-09T09:23:25;7;4;
56069;PMS5003;41944;52.078;-0.058;2023-07-09T09:26:02;8;6;
56069;PMS5003;41944;52.078;-0.058;2023-07-09T09:28:38;7;5;
56069;PMS5003;41944;52.078;-0.058;2023-07-09T09:31:07;5;5;
56069;PMS5003;41944;52.078;-0.058;2023-07-09T09:33:37;3;3;
56069;PMS5003;41944;52.078;-0.058;2023-07-09T09:36:11;18;17;
56069;PMS5003;41944;52.078;-0.058;2023-07-09T09:38:43;4;2;
56069;PMS5003;41944;52.078;-0.058;2023-07-09T09:41:12;11;8;
56069;PMS5003;41944;52.078;-0.058;2023-07-09T09:43:41;18;14;
56069;PMS5003;41944;52.078;-0.058;2023-07-09T09:46:09;7;5;
56069;PMS5003;41944;52.078;-0.058;2023-07-09T09:48:44;4;4;
56069;PMS5003;41944;52.078;-0.058;2023-07-09T09:51:13;5;4;
56069;PMS5003;41944;52.078;-0.058;2023-07-09T09:53:44;4;3;
56069;PMS5003;41944;52.078;-0.058;2023-07-09T09:56:15;5;4;
56069;PMS5003;41944;52.078;-0.058;2023-07-09T09:58:45;3;2;
56069;PMS5003;41944;52.078;-0.058;2023-07-09T10:01:14;3;3;
56069;PMS5003;41944;52.078;-0.058;2023-07-09T10:03:46;6;3;
56069;PMS5003;41944;52.078;-0.058;2023-07-09T10:06:15;4;2;
56069;PMS5003;41944;52.078;-0.058;2023-07-09T10:08:48;5;5;
56069;PMS5003;41944;52.078;-0.058;2023-07-09T10:11:26;2;2;
56069;PMS5003;41944;52.078;-0.058;2023-07-09T10:14:04;2;2;
56069;PMS5003;41944;52.078;-0.058;2023-07-09T10:16:44;4;2;
56069;PMS5003;41944;52.078;-0.058;2023-07-09T10:19:17;6;3;
56069;PMS5003;41944;52.078;-0.058;2023-07-09T10:21:51;3;3;
56069;PMS5003;41944;52.078;-0.058;2023-07-09T10:24:28;4;4;
56069;PMS5003;41944;52.078;-0.058;2023-07-09T10:27:08;4;4;
56069;PMS5003;41944;52.078;-0.058;2023-07-09T10:29:42;5;3;
56069;PMS5003;41944;52.078;-0.058;2023-07-09T10:32:22;3;2;
56069;PMS5003;41944;52.078;-0.058;2023-07-09T10:35:00;8;3;
56069;PMS5003;41944;52.078;-0.058;2023-07-09T10:37:41;3;3;
56069;PMS5003;41944;52.078;-0.058;2023-07-09T10:40:30;3;3;
56069;PMS5003;41944;52.078;-0.058;2023-07-09T10:43:02;7;6;
56069;PMS5003;41944;52.078;-0.058;2023-07-09T10:45:34;2;2;
56069;PMS5003;41944;52.078;-0.058;2023-07-09T10:48:08;4;3;
56069;PMS5003;41944;52.078;-0.058;2023-07-09T10:50:41;6;3;
56069;PMS5003;41944;52.078;-0.058;2023-07-09T10:53:12;3;1;
56069;PMS5003;41944;52.078;-0.058;2023-07-09T10:55:43;5;3;
56069;PMS5003;41944;52.078;-0.058;2023-07-09T10:58:20;2;2;
56069;PMS5003;41944;52.078;-0.058;2023-07-09T11:00:55;4;4;
56069;PMS5003;41944;52.078;-0.058;2023-07-09T11:03:27;3;3;
56069;PMS5003;41944;52.078;-0.058;2023-07-09T11:06:03;3;3;
56069;PMS5003;41944;52.078;-0.058;2023-07-09T11:08:35;4;3;
56069;PMS5003;41944;52.078;-0.058;2023-07-09T11:11:06;5;2;
56069;PMS5003;41944;52.078;-0.058;2023-07-09T11:13:38;4;3;
56069;PMS5003;41944;52.078;-0.058;2023-07-09T11:16:09;2;2;
56069;PMS5003;41944;52.078;-0.058;2023-07-09T11:18:41;3;3;
56069;PMS5003;41944;52.078;-0.058;2023-07-09T11:21:21;6;1;
56069;PMS5003;41944;52.078;-0.058;2023-07-09T11:23:49;3;3;
56069;PMS5003;41944;52.078;-0.058;2023-07-09T11:26:22;2;2;
56069;PMS5003;41944;52.078;-0.058;2023-07-09T11:28:52;3;2;
56069;PMS5003;41944;52.078;-0.058;2023-07-09T11:31:22;2;2;
56069;PMS5003;41944;52.078;-0.058;2023-07-09T11:34:01;3;2;
56069;PMS5003;41944;52.078;-0.058;2023-07-09T11:36:45;3;1;
56069;PMS5003;41944;52.078;-0.058;2023-07-09T11:39:17;3;3;
56069;PMS5003;41944;52.078;-0.058;2023-07-09T11:41:48;2;2;
56069;PMS5003;41944;52.078;-0.058;2023-07-09T11:44:17;3;2;
56069;PMS5003;41944;52.078;-0.058;2023-07-09T11:47:08;2;2;
56069;PMS5003;41944;52.078;-0.058;2023-07-09T11:49:46;1;1;
56069;PMS5003;41944;52.078;-0.058;2023-07-09T11:52:20;1;1;
56069;PMS5003;41944;52.078;-0.058;2023-07-09T11:54:54;3;2;
56069;PMS5003;41944;52.078;-0.058;2023-07-09T11:57:21;2;1;
56069;PMS5003;41944;52.078;-0.058;2023-07-09T11:59:48;1;1;
56069;PMS5003;41944;52.078;-0.058;2023-07-09T12:02:16;2;2;
56069;PMS5003;41944;52.078;-0.058;2023-07-09T12:04:47;2;2;
56069;PMS5003;41944;52.078;-0.058;2023-07-09T12:07:16;3;1;
56069;PMS5003;41944;52.078;-0.058;2023-07-09T12:09:47;2;2;
56069;PMS5003;41944;52.078;-0.058;2023-07-09T12:12:18;3;1;
56069;PMS5003;41944;52.078;-0.058;2023-07-09T12:14:46;1;1;
56069;PMS5003;41944;52.078;-0.058;2023-07-09T12:17:13;2;2;
56069;PMS5003;41944;52.078;-0.058;2023-07-09T12:19:41;2;1;
56069;PMS5003;41944;52.078;-0.058;2023-07-09T12:22:18;1;1;
56069;PMS5003;41944;52.078;-0.058;2023-07-09T12:24:47;1;1;
56069;PMS5003;41944;52.078;-0.058;2023-07-09T12:27:17;0;0;
56069;PMS5003;41944;52.078;-0.058;2023-07-09T12:29:47;2;2;
56069;PMS5003;41944;52.078;-0.058;2023-07-09T12:32:18;1;1;
56069;PMS5003;41944;52.078;-0.058;2023-07-09T12:34:46;5;3;
56069;PMS5003;41944;52.078;-0.058;2023-07-09T12:37:15;3;1;
56069;PMS5003;41944;52.078;-0.058;2023-07-09T12:39:44;2;2;
56069;PMS5003;41944;52.078;-0.058;2023-07-09T12:42:14;1;1;
56069;PMS5003;41944;52.078;-0.058;2023-07-09T12:44:43;1;1;
56069;PMS5003;41944;52.078;-0.058;2023-07-09T12:47:12;5;1;
56069;PMS5003;41944;52.078;-0.058;2023-07-09T12:49:41;4;1;
56069;PMS5003;41944;52.078;-0.058;2023-07-09T12:52:12;3;2;
56069;PMS5003;41944;52.078;-0.058;2023-07-09T12:54:50;3;2;
56069;PMS5003;41944;52.078;-0.058;2023-07-09T12:57:21;1;1;
56069;PMS5003;41944;52.078;-0.058;2023-07-09T12:59:50;4;2;
56069;PMS5003;41944;52.078;-0.058;2023-07-09T13:02:19;0;0;
56069;PMS5003;41944;52.078;-0.058;2023-07-09T13:04:48;4;1;
56069;PMS5003;41944;52.078;-0.058;2023-07-09T13:07:25;1;1;
56069;PMS5003;41944;52.078;-0.058;2023-07-09T13:09:56;5;2;
56069;PMS5003;41944;52.078;-0.058;2023-07-09T13:12:29;4;1;
56069;PMS5003;41944;52.078;-0.058;2023-07-09T13:14:57;4;2;
56069;PMS5003;41944;52.078;-0.058;2023-07-09T13:17:27;2;2;
56069;PMS5003;41944;52.078;-0.058;2023-07-09T13:19:55;3;2;
56069;PMS5003;41944;52.078;-0.058;2023-07-09T13:22:22;3;1;
56069;PMS5003;41944;52.078;-0.058;2023-07-09T13:24:50;2;2;
56069;PMS5003;41944;52.078;-0.058;2023-07-09T13:27:17;6;3;
56069;PMS5003;41944;52.078;-0.058;2023-07-09T13:29:44;2;2;
56069;PMS5003;41944;52.078;-0.058;2023-07-09T13:32:12;2;2;
56069;PMS5003;41944;52.078;-0.058;2023-07-09T13:34:41;5;1;
56069;PMS5003;41944;52.078;-0.058;2023-07-09T13:37:09;2;2;
56069;PMS5003;41944;52.078;-0.058;2023-07-09T13:39:38;4;2;
56069;PMS5003;41944;52.078;-0.058;2023-07-09T13:42:08;2;2;
56069;PMS5003;41944;52.078;-0.058;2023-07-09T13:44:38;4;1;
56069;PMS5003;41944;52.078;-0.058;2023-07-09T13:47:08;2;2;
56069;PMS5003;41944;52.078;-0.058;2023-07-09T13:49:38;1;1;
56069;PMS5003;41944;52.078;-0.058;2023-07-09T13:52:08;2;1;
56069;PMS5003;41944;52.078;-0.058;2023-07-09T13:54:41;3;2;
56069;PMS5003;41944;52.078;-0.058;2023-07-09T13:57:11;4;1;
56069;PMS5003;41944;52.078;-0.058;2023-07-09T13:59:41;3;1;
56069;PMS5003;41944;52.078;-0.058;2023-07-09T14:02:15;2;1;
56069;PMS5003;41944;52.078;-0.058;2023-07-09T14:04:47;2;2;
56069;PMS5003;41944;52.078;-0.058;2023-07-09T14:07:20;1;1;
56069;PMS5003;41944;52.078;-0.058;2023-07-09T14:09:52;1;1;
56069;PMS5003;41944;52.078;-0.058;2023-07-09T14:12:20;2;2;
56069;PMS5003;41944;52.078;-0.058;2023-07-09T14:14:47;1;1;
56069;PMS5003;41944;52.078;-0.058;2023-07-09T14:17:17;2;2;
56069;PMS5003;41944;52.078;-0.058;2023-07-09T14:19:43;3;1;
56069;PMS5003;41944;52.078;-0.058;2023-07-09T14:22:19;4;1;
56069;PMS5003;41944;52.078;-0.058;2023-07-09T14:24:49;0;0;
56069;PMS5003;41944;52.078;-0.058;2023-07-09T14:27:17;3;1;
56069;PMS5003;41944;52.078;-0.058;2023-07-09T14:29:45;4;3;
56069;PMS5003;41944;52.078;-0.058;2023-07-09T14:32:22;1;1;
56069;PMS5003;41944;52.078;-0.058;2023-07-09T14:34:58;4;2;
56069;PMS5003;41944;52.078;-0.058;2023-07-09T14:37:26;2;1;
56069;PMS5003;41944;52.078;-0.058;2023-07-09T14:39:53;1;1;
56069;PMS5003;41944;52.078;-0.058;2023-07-09T14:42:20;2;1;
56069;PMS5003;41944;52.078;-0.058;2023-07-09T14:44:47;2;2;
56069;PMS5003;41944;52.078;-0.058;2023-07-09T14:47:15;5;3;
56069;PMS5003;41944;52.078;-0.058;2023-07-09T14:49:44;3;1;
56069;PMS5003;41944;52.078;-0.058;2023-07-09T14:52:12;3;1;
56069;PMS5003;41944;52.078;-0.058;2023-07-09T14:54:40;1;1;
56069;PMS5003;41944;52.078;-0.058;2023-07-09T14:57:11;5;0;
56069;PMS5003;41944;52.078;-0.058;2023-07-09T14:59:44;4;2;
56069;PMS5003;41944;52.078;-0.058;2023-07-09T15:02:15;4;2;
56069;PMS5003;41944;52.078;-0.058;2023-07-09T15:04:48;3;1;
56069;PMS5003;41944;52.078;-0.058;2023-07-09T15:07:16;6;2;
56069;PMS5003;41944;52.078;-0.058;2023-07-09T15:09:43;1;1;
56069;PMS5003;41944;52.078;-0.058;2023-07-09T15:12:13;0;0;
56069;PMS5003;41944;52.078;-0.058;2023-07-09T15:14:43;2;1;
56069;PMS5003;41944;52.078;-0.058;2023-07-09T15:17:10;2;1;
56069;PMS5003;41944;52.078;-0.058;2023-07-09T15:19:38;3;2;
56069;PMS5003;41944;52.078;-0.058;2023-07-09T15:22:05;5;2;
56069;PMS5003;41944;52.078;-0.058;2023-07-09T15:24:41;1;1;
56069;PMS5003;41944;52.078;-0.058;2023-07-09T15:27:09;3;2;
56069;PMS5003;41944;52.078;-0.058;2023-07-09T15:29:35;2;2;
56069;PMS5003;41944;52.078;-0.058;2023-07-09T15:32:03;2;2;
56069;PMS5003;41944;52.078;-0.058;2023-07-09T15:34:30;1;1;
56069;PMS5003;41944;52.078;-0.058;2023-07-09T15:36:57;1;1;
56069;PMS5003;41944;52.078;-0.058;2023-07-09T15:39:24;5;2;
56069;PMS5003;41944;52.078;-0.058;2023-07-09T15:41:52;1;1;
56069;PMS5003;41944;52.078;-0.058;2023-07-09T15:44:18;1;1;
56069;PMS5003;41944;52.078;-0.058;2023-07-09T15:46:47;4;1;
56069;PMS5003;41944;52.078;-0.058;2023-07-09T15:49:17;2;2;
56069;PMS5003;41944;52.078;-0.058;2023-07-09T15:51:44;2;2;
56069;PMS5003;41944;52.078;-0.058;2023-07-09T15:54:14;3;3;
56069;PMS5003;41944;52.078;-0.058;2023-07-09T15:56:43;2;2;
56069;PMS5003;41944;52.078;-0.058;2023-07-09T15:59:16;2;2;
56069;PMS5003;41944;52.078;-0.058;2023-07-09T16:01:52;3;2;
56069;PMS5003;41944;52.078;-0.058;2023-07-09T16:04:19;4;2;
56069;PMS5003;41944;52.078;-0.058;2023-07-09T16:06:46;2;2;
56069;PMS5003;41944;52.078;-0.058;2023-07-09T16:09:13;3;2;
56069;PMS5003;41944;52.078;-0.058;2023-07-09T16:11:41;2;2;
56069;PMS5003;41944;52.078;-0.058;2023-07-09T16:14:15;3;3;
56069;PMS5003;41944;52.078;-0.058;2023-07-09T16:16:46;5;2;
56069;PMS5003;41944;52.078;-0.058;2023-07-09T16:19:16;5;2;
56069;PMS5003;41944;52.078;-0.058;2023-07-09T16:21:43;4;2;
56069;PMS5003;41944;52.078;-0.058;2023-07-09T16:24:14;4;3;
56069;PMS5003;41944;52.078;-0.058;2023-07-09T16:26:45;2;1;
56069;PMS5003;41944;52.078;-0.058;2023-07-09T16:29:14;3;2;
56069;PMS5003;41944;52.078;-0.058;2023-07-09T16:31:44;3;2;
56069;PMS5003;41944;52.078;-0.058;2023-07-09T16:34:10;1;1;
56069;PMS5003;41944;52.078;-0.058;2023-07-09T16:36:37;2;2;
56069;PMS5003;41944;52.078;-0.058;2023-07-09T16:39:18;5;3;
56069;PMS5003;41944;52.078;-0.058;2023-07-09T16:41:51;3;3;
56069;PMS5003;41944;52.078;-0.058;2023-07-09T16:44:20;3;1;
56069;PMS5003;41944;52.078;-0.058;2023-07-09T16:46:47;3;3;
56069;PMS5003;41944;52.078;-0.058;2023-07-09T16:49:24;2;2;